Startpagina
METAR-TAF:

METAR-TAF

Vliegvelden :

Luchthaven Caïro Internationaal

Caïro, Egypte

breedte: 30-08N, lengte: 031-24E, hoogte: 64 m

Actueel weer

Dit bericht is 35 minuten geleden gemaakt, om 16:30 UTC
Wind 10 kt uit het noorden
Temperatuur 27°C
Vochtigheid 48%
Druk 1013 hPa
Zicht 10 km of meer
Verspreide wolken op 2500 ft

METAR: HECA 171630Z 35010KT 9999 SCT025 27/15 Q1013 NOSIG

Tijdstip: 19:05 (17:05 UTC)

Verwachting

Dit bericht is 6 uur en het 5 minuten geleden gemaakt, om 11:00 UTC
Verwachting geldig van 17 om 12 UTC tot 18 om 18 UTC
Wind 10 kt uit het noorden
Zicht 10 km of meer
Gebroken wolken op 2500 ft

TAF: HECA 171100Z 1712/1818 35010KT 9999 BKN025

Waarnemingen en weersverwachtingen van meer dan 4000 vliegvelden (METAR en TAF).

De beschikbare stations zijn de gele en rode punten op de kaart.

Ga met uw muis naar het station om de naam te zien.

Klik dan om waarnemingen en weersverwachtingen te zien.

kaart wijzigen: klik op de groene knoppen met een zwart kruis om in te zoomen, op de groene knop met een streepje om uit te zoomen of op de groene pijlen voor aangrenzende kaarten.


METAR-TAF: